sensor_id;sensor_type;location;lat;lon;timestamp;P1;durP1;ratioP1;P2;durP2;ratioP2
13693;SDS011;6919;52.344;14.518;2023-02-28T00:01:35;2.37;;;2.10;;
13693;SDS011;6919;52.344;14.518;2023-02-28T00:04:04;4.03;;;2.97;;
13693;SDS011;6919;52.344;14.518;2023-02-28T00:06:35;3.53;;;2.90;;
13693;SDS011;6919;52.344;14.518;2023-02-28T00:09:04;3.90;;;2.93;;
13693;SDS011;6919;52.344;14.518;2023-02-28T00:11:34;3.37;;;3.07;;
13693;SDS011;6919;52.344;14.518;2023-02-28T00:14:04;3.57;;;2.00;;
13693;SDS011;6919;52.344;14.518;2023-02-28T00:16:32;3.87;;;3.57;;
13693;SDS011;6919;52.344;14.518;2023-02-28T00:19:01;1.73;;;1.37;;
13693;SDS011;6919;52.344;14.518;2023-02-28T00:21:30;3.63;;;3.20;;
13693;SDS011;6919;52.344;14.518;2023-02-28T00:23:59;4.43;;;2.57;;
13693;SDS011;6919;52.344;14.518;2023-02-28T00:26:28;3.50;;;2.70;;
13693;SDS011;6919;52.344;14.518;2023-02-28T00:28:58;2.00;;;1.80;;
13693;SDS011;6919;52.344;14.518;2023-02-28T00:31:26;2.17;;;1.97;;
13693;SDS011;6919;52.344;14.518;2023-02-28T00:33:55;4.23;;;3.03;;
13693;SDS011;6919;52.344;14.518;2023-02-28T00:36:24;3.37;;;3.07;;
13693;SDS011;6919;52.344;14.518;2023-02-28T00:39:01;2.37;;;2.17;;
13693;SDS011;6919;52.344;14.518;2023-02-28T00:41:30;2.80;;;2.50;;
13693;SDS011;6919;52.344;14.518;2023-02-28T00:44:00;3.90;;;2.27;;
13693;SDS011;6919;52.344;14.518;2023-02-28T00:46:28;3.43;;;2.20;;
13693;SDS011;6919;52.344;14.518;2023-02-28T00:48:57;4.87;;;3.03;;
13693;SDS011;6919;52.344;14.518;2023-02-28T00:51:26;1.97;;;1.87;;
13693;SDS011;6919;52.344;14.518;2023-02-28T00:53:55;2.07;;;1.90;;
13693;SDS011;6919;52.344;14.518;2023-02-28T00:56:24;2.37;;;2.20;;
13693;SDS011;6919;52.344;14.518;2023-02-28T00:58:52;5.13;;;2.53;;
13693;SDS011;6919;52.344;14.518;2023-02-28T01:01:22;3.30;;;2.20;;
13693;SDS011;6919;52.344;14.518;2023-02-28T01:03:51;4.73;;;2.73;;
13693;SDS011;6919;52.344;14.518;2023-02-28T01:06:20;1.20;;;1.10;;
13693;SDS011;6919;52.344;14.518;2023-02-28T01:08:48;3.97;;;3.17;;
13693;SDS011;6919;52.344;14.518;2023-02-28T01:11:18;2.60;;;2.40;;
13693;SDS011;6919;52.344;14.518;2023-02-28T01:13:47;2.33;;;2.13;;
13693;SDS011;6919;52.344;14.518;2023-02-28T01:16:16;2.20;;;1.50;;
13693;SDS011;6919;52.344;14.518;2023-02-28T01:18:47;2.03;;;1.90;;
13693;SDS011;6919;52.344;14.518;2023-02-28T01:21:17;2.40;;;1.63;;
13693;SDS011;6919;52.344;14.518;2023-02-28T01:23:46;2.53;;;1.60;;
13693;SDS011;6919;52.344;14.518;2023-02-28T01:26:16;1.43;;;1.33;;
13693;SDS011;6919;52.344;14.518;2023-02-28T01:28:48;2.50;;;2.20;;
13693;SDS011;6919;52.344;14.518;2023-02-28T01:31:18;1.20;;;1.20;;
13693;SDS011;6919;52.344;14.518;2023-02-28T01:33:50;2.57;;;1.53;;
13693;SDS011;6919;52.344;14.518;2023-02-28T01:36:20;2.40;;;2.10;;
13693;SDS011;6919;52.344;14.518;2023-02-28T01:38:49;2.77;;;2.50;;
13693;SDS011;6919;52.344;14.518;2023-02-28T01:41:20;5.80;;;2.23;;
13693;SDS011;6919;52.344;14.518;2023-02-28T01:43:57;6.77;;;1.23;;
13693;SDS011;6919;52.344;14.518;2023-02-28T01:46:30;1.63;;;1.53;;
13693;SDS011;6919;52.344;14.518;2023-02-28T01:49:03;1.53;;;1.43;;
13693;SDS011;6919;52.344;14.518;2023-02-28T01:51:35;1.37;;;1.27;;
13693;SDS011;6919;52.344;14.518;2023-02-28T01:54:12;3.37;;;2.70;;
13693;SDS011;6919;52.344;14.518;2023-02-28T01:56:46;2.03;;;1.93;;
13693;SDS011;6919;52.344;14.518;2023-02-28T01:59:21;1.10;;;1.10;;
13693;SDS011;6919;52.344;14.518;2023-02-28T02:01:54;1.77;;;1.37;;
13693;SDS011;6919;52.344;14.518;2023-02-28T02:04:25;3.70;;;2.20;;
13693;SDS011;6919;52.344;14.518;2023-02-28T02:07:00;3.13;;;2.13;;
13693;SDS011;6919;52.344;14.518;2023-02-28T02:09:28;1.27;;;1.17;;
13693;SDS011;6919;52.344;14.518;2023-02-28T02:11:57;4.30;;;3.20;;
13693;SDS011;6919;52.344;14.518;2023-02-28T02:14:40;0.70;;;0.70;;
13693;SDS011;6919;52.344;14.518;2023-02-28T02:17:20;1.50;;;0.93;;
13693;SDS011;6919;52.344;14.518;2023-02-28T02:23:17;3.13;;;1.53;;
13693;SDS011;6919;52.344;14.518;2023-02-28T02:26:12;0.77;;;0.77;;
13693;SDS011;6919;52.344;14.518;2023-02-28T02:29:10;3.33;;;2.13;;
13693;SDS011;6919;52.344;14.518;2023-02-28T02:35:24;0.93;;;0.93;;
13693;SDS011;6919;52.344;14.518;2023-02-28T02:37:59;1.43;;;1.33;;
13693;SDS011;6919;52.344;14.518;2023-02-28T02:40:37;1.37;;;0.97;;
13693;SDS011;6919;52.344;14.518;2023-02-28T02:43:11;2.20;;;2.00;;
13693;SDS011;6919;52.344;14.518;2023-02-28T02:45:45;2.77;;;1.63;;
13693;SDS011;6919;52.344;14.518;2023-02-28T02:48:17;0.97;;;0.97;;
13693;SDS011;6919;52.344;14.518;2023-02-28T02:50:51;2.90;;;1.83;;
13693;SDS011;6919;52.344;14.518;2023-02-28T02:53:24;0.97;;;0.97;;
13693;SDS011;6919;52.344;14.518;2023-02-28T02:55:56;0.87;;;0.87;;
13693;SDS011;6919;52.344;14.518;2023-02-28T02:58:28;1.60;;;1.50;;
13693;SDS011;6919;52.344;14.518;2023-02-28T03:01:01;1.63;;;1.53;;
13693;SDS011;6919;52.344;14.518;2023-02-28T03:03:31;11.83;;;1.47;;
13693;SDS011;6919;52.344;14.518;2023-02-28T03:06:03;0.80;;;0.80;;
13693;SDS011;6919;52.344;14.518;2023-02-28T03:08:33;2.77;;;1.80;;
13693;SDS011;6919;52.344;14.518;2023-02-28T03:11:04;1.40;;;1.33;;
13693;SDS011;6919;52.344;14.518;2023-02-28T03:13:42;1.37;;;1.13;;
13693;SDS011;6919;52.344;14.518;2023-02-28T03:19:25;3.10;;;1.80;;
13693;SDS011;6919;52.344;14.518;2023-02-28T03:22:14;1.20;;;1.20;;
13693;SDS011;6919;52.344;14.518;2023-02-28T03:24:54;1.17;;;1.07;;
13693;SDS011;6919;52.344;14.518;2023-02-28T03:27:28;1.30;;;1.20;;
13693;SDS011;6919;52.344;14.518;2023-02-28T03:30:03;3.23;;;2.00;;
13693;SDS011;6919;52.344;14.518;2023-02-28T03:32:38;1.43;;;1.33;;
13693;SDS011;6919;52.344;14.518;2023-02-28T03:35:14;1.83;;;1.57;;
13693;SDS011;6919;52.344;14.518;2023-02-28T03:37:50;1.00;;;0.87;;
13693;SDS011;6919;52.344;14.518;2023-02-28T03:40:23;1.60;;;1.50;;
13693;SDS011;6919;52.344;14.518;2023-02-28T03:42:59;1.63;;;1.53;;
13693;SDS011;6919;52.344;14.518;2023-02-28T03:45:35;1.00;;;1.00;;
13693;SDS011;6919;52.344;14.518;2023-02-28T03:48:07;1.73;;;1.33;;
13693;SDS011;6919;52.344;14.518;2023-02-28T03:50:41;27.23;;;1.47;;
13693;SDS011;6919;52.344;14.518;2023-02-28T03:53:14;1.33;;;1.23;;
13693;SDS011;6919;52.344;14.518;2023-02-28T03:55:47;1.37;;;1.27;;
13693;SDS011;6919;52.344;14.518;2023-02-28T03:58:21;1.10;;;1.10;;
13693;SDS011;6919;52.344;14.518;2023-02-28T04:00:57;1.13;;;1.03;;
13693;SDS011;6919;52.344;14.518;2023-02-28T04:03:35;0.80;;;0.80;;
13693;SDS011;6919;52.344;14.518;2023-02-28T04:06:05;1.60;;;1.50;;
13693;SDS011;6919;52.344;14.518;2023-02-28T04:08:36;0.80;;;0.80;;
13693;SDS011;6919;52.344;14.518;2023-02-28T04:11:07;1.30;;;1.27;;
13693;SDS011;6919;52.344;14.518;2023-02-28T04:13:45;1.53;;;1.47;;
13693;SDS011;6919;52.344;14.518;2023-02-28T04:16:14;2.40;;;1.40;;
13693;SDS011;6919;52.344;14.518;2023-02-28T04:19:00;0.57;;;0.57;;
13693;SDS011;6919;52.344;14.518;2023-02-28T04:21:29;1.10;;;1.00;;
13693;SDS011;6919;52.344;14.518;2023-02-28T04:24:01;1.60;;;1.40;;
13693;SDS011;6919;52.344;14.518;2023-02-28T04:26:30;1.23;;;1.23;;
13693;SDS011;6919;52.344;14.518;2023-02-28T04:28:59;1.00;;;1.00;;
13693;SDS011;6919;52.344;14.518;2023-02-28T04:31:29;0.77;;;0.77;;
13693;SDS011;6919;52.344;14.518;2023-02-28T04:33:58;1.27;;;1.23;;
13693;SDS011;6919;52.344;14.518;2023-02-28T04:36:27;1.53;;;1.17;;
13693;SDS011;6919;52.344;14.518;2023-02-28T04:38:56;1.20;;;0.93;;
13693;SDS011;6919;52.344;14.518;2023-02-28T04:41:26;0.97;;;0.97;;
13693;SDS011;6919;52.344;14.518;2023-02-28T04:43:58;1.27;;;1.17;;
13693;SDS011;6919;52.344;14.518;2023-02-28T04:46:26;0.73;;;0.73;;
13693;SDS011;6919;52.344;14.518;2023-02-28T04:48:56;8.17;;;1.07;;
13693;SDS011;6919;52.344;14.518;2023-02-28T04:51:25;1.47;;;1.37;;
13693;SDS011;6919;52.344;14.518;2023-02-28T04:53:54;0.60;;;0.60;;
13693;SDS011;6919;52.344;14.518;2023-02-28T04:56:24;1.77;;;0.90;;
13693;SDS011;6919;52.344;14.518;2023-02-28T04:58:54;1.70;;;1.43;;
13693;SDS011;6919;52.344;14.518;2023-02-28T05:01:23;0.80;;;0.80;;
13693;SDS011;6919;52.344;14.518;2023-02-28T05:03:54;0.80;;;0.80;;
13693;SDS011;6919;52.344;14.518;2023-02-28T05:06:25;0.70;;;0.70;;
13693;SDS011;6919;52.344;14.518;2023-02-28T05:08:56;1.10;;;1.07;;
13693;SDS011;6919;52.344;14.518;2023-02-28T05:11:26;1.77;;;1.67;;
13693;SDS011;6919;52.344;14.518;2023-02-28T05:14:01;0.80;;;0.80;;
13693;SDS011;6919;52.344;14.518;2023-02-28T05:16:30;1.63;;;1.53;;
13693;SDS011;6919;52.344;14.518;2023-02-28T05:19:00;0.60;;;0.60;;
13693;SDS011;6919;52.344;14.518;2023-02-28T05:21:30;3.87;;;1.27;;
13693;SDS011;6919;52.344;14.518;2023-02-28T05:24:00;0.77;;;0.77;;
13693;SDS011;6919;52.344;14.518;2023-02-28T05:26:31;1.27;;;1.17;;
13693;SDS011;6919;52.344;14.518;2023-02-28T05:29:04;1.97;;;1.87;;
13693;SDS011;6919;52.344;14.518;2023-02-28T05:31:32;0.40;;;0.40;;
13693;SDS011;6919;52.344;14.518;2023-02-28T05:34:01;0.90;;;0.90;;
13693;SDS011;6919;52.344;14.518;2023-02-28T05:36:31;1.23;;;1.13;;
13693;SDS011;6919;52.344;14.518;2023-02-28T05:38:59;1.00;;;0.93;;
13693;SDS011;6919;52.344;14.518;2023-02-28T05:41:29;1.67;;;1.13;;
13693;SDS011;6919;52.344;14.518;2023-02-28T05:43:58;1.23;;;1.20;;
13693;SDS011;6919;52.344;14.518;2023-02-28T05:46:28;0.77;;;0.77;;
13693;SDS011;6919;52.344;14.518;2023-02-28T05:48:57;0.50;;;0.50;;
13693;SDS011;6919;52.344;14.518;2023-02-28T05:51:27;0.77;;;0.77;;
13693;SDS011;6919;52.344;14.518;2023-02-28T05:53:58;0.53;;;0.53;;
13693;SDS011;6919;52.344;14.518;2023-02-28T05:56:29;1.17;;;1.17;;
13693;SDS011;6919;52.344;14.518;2023-02-28T05:59:00;1.10;;;1.10;;
13693;SDS011;6919;52.344;14.518;2023-02-28T06:01:35;1.77;;;1.60;;
13693;SDS011;6919;52.344;14.518;2023-02-28T06:04:06;1.67;;;1.57;;
13693;SDS011;6919;52.344;14.518;2023-02-28T06:06:51;1.47;;;1.37;;
13693;SDS011;6919;52.344;14.518;2023-02-28T06:09:19;0.60;;;0.60;;
13693;SDS011;6919;52.344;14.518;2023-02-28T06:11:48;0.63;;;0.63;;
13693;SDS011;6919;52.344;14.518;2023-02-28T06:14:17;0.97;;;0.97;;
13693;SDS011;6919;52.344;14.518;2023-02-28T06:16:48;1.20;;;1.00;;
13693;SDS011;6919;52.344;14.518;2023-02-28T06:19:17;0.63;;;0.63;;
13693;SDS011;6919;52.344;14.518;2023-02-28T06:21:49;1.00;;;1.00;;
13693;SDS011;6919;52.344;14.518;2023-02-28T06:24:19;2.40;;;1.67;;
13693;SDS011;6919;52.344;14.518;2023-02-28T06:26:48;0.90;;;0.90;;
13693;SDS011;6919;52.344;14.518;2023-02-28T06:29:18;1.17;;;1.17;;
13693;SDS011;6919;52.344;14.518;2023-02-28T06:31:46;0.63;;;0.63;;
13693;SDS011;6919;52.344;14.518;2023-02-28T06:34:17;0.77;;;0.77;;
13693;SDS011;6919;52.344;14.518;2023-02-28T06:36:45;1.33;;;1.23;;
13693;SDS011;6919;52.344;14.518;2023-02-28T06:39:18;2.10;;;1.53;;
13693;SDS011;6919;52.344;14.518;2023-02-28T06:41:47;1.80;;;1.70;;
13693;SDS011;6919;52.344;14.518;2023-02-28T06:44:21;0.80;;;0.80;;
13693;SDS011;6919;52.344;14.518;2023-02-28T06:46:52;1.10;;;1.00;;
13693;SDS011;6919;52.344;14.518;2023-02-28T06:49:20;1.07;;;1.07;;
13693;SDS011;6919;52.344;14.518;2023-02-28T06:51:49;1.00;;;1.00;;
13693;SDS011;6919;52.344;14.518;2023-02-28T06:54:18;0.70;;;0.70;;
13693;SDS011;6919;52.344;14.518;2023-02-28T06:56:46;0.87;;;0.87;;
13693;SDS011;6919;52.344;14.518;2023-02-28T06:59:15;0.50;;;0.50;;
13693;SDS011;6919;52.344;14.518;2023-02-28T07:01:44;1.20;;;0.93;;
13693;SDS011;6919;52.344;14.518;2023-02-28T07:04:15;0.90;;;0.90;;
13693;SDS011;6919;52.344;14.518;2023-02-28T07:06:43;0.60;;;0.60;;
13693;SDS011;6919;52.344;14.518;2023-02-28T07:09:12;0.87;;;0.87;;
13693;SDS011;6919;52.344;14.518;2023-02-28T07:11:41;0.90;;;0.90;;
13693;SDS011;6919;52.344;14.518;2023-02-28T07:14:10;2.63;;;2.30;;
13693;SDS011;6919;52.344;14.518;2023-02-28T07:16:38;0.73;;;0.73;;
13693;SDS011;6919;52.344;14.518;2023-02-28T07:19:07;1.20;;;1.20;;
13693;SDS011;6919;52.344;14.518;2023-02-28T07:21:37;0.90;;;0.90;;
13693;SDS011;6919;52.344;14.518;2023-02-28T07:24:06;4.93;;;2.03;;
13693;SDS011;6919;52.344;14.518;2023-02-28T07:26:35;0.90;;;0.90;;
13693;SDS011;6919;52.344;14.518;2023-02-28T07:29:03;1.33;;;1.23;;
13693;SDS011;6919;52.344;14.518;2023-02-28T07:31:32;1.20;;;1.00;;
13693;SDS011;6919;52.344;14.518;2023-02-28T07:34:01;0.80;;;0.80;;
13693;SDS011;6919;52.344;14.518;2023-02-28T07:36:29;1.67;;;1.57;;
13693;SDS011;6919;52.344;14.518;2023-02-28T07:38:59;0.90;;;0.90;;
13693;SDS011;6919;52.344;14.518;2023-02-28T07:41:28;1.60;;;0.87;;
13693;SDS011;6919;52.344;14.518;2023-02-28T07:44:00;1.83;;;1.20;;
13693;SDS011;6919;52.344;14.518;2023-02-28T07:46:29;1.00;;;1.00;;
13693;SDS011;6919;52.344;14.518;2023-02-28T07:49:02;0.80;;;0.80;;
13693;SDS011;6919;52.344;14.518;2023-02-28T07:51:32;3.23;;;1.23;;
13693;SDS011;6919;52.344;14.518;2023-02-28T07:54:02;0.50;;;0.50;;
13693;SDS011;6919;52.344;14.518;2023-02-28T07:56:31;1.00;;;1.00;;
13693;SDS011;6919;52.344;14.518;2023-02-28T07:59:00;1.90;;;1.47;;
13693;SDS011;6919;52.344;14.518;2023-02-28T08:01:29;0.70;;;0.70;;
13693;SDS011;6919;52.344;14.518;2023-02-28T08:03:58;0.83;;;0.83;;
13693;SDS011;6919;52.344;14.518;2023-02-28T08:06:27;1.50;;;0.70;;
13693;SDS011;6919;52.344;14.518;2023-02-28T08:08:55;1.03;;;1.00;;
13693;SDS011;6919;52.344;14.518;2023-02-28T08:11:26;1.00;;;1.00;;
13693;SDS011;6919;52.344;14.518;2023-02-28T08:13:54;1.27;;;1.17;;
13693;SDS011;6919;52.344;14.518;2023-02-28T08:16:23;0.90;;;0.90;;
13693;SDS011;6919;52.344;14.518;2023-02-28T08:18:52;1.17;;;1.17;;
13693;SDS011;6919;52.344;14.518;2023-02-28T08:21:21;1.80;;;1.50;;
13693;SDS011;6919;52.344;14.518;2023-02-28T08:23:51;1.23;;;1.17;;
13693;SDS011;6919;52.344;14.518;2023-02-28T08:26:20;1.37;;;1.23;;
13693;SDS011;6919;52.344;14.518;2023-02-28T08:28:50;1.63;;;1.53;;
13693;SDS011;6919;52.344;14.518;2023-02-28T08:31:22;0.70;;;0.70;;
13693;SDS011;6919;52.344;14.518;2023-02-28T08:33:50;0.40;;;0.40;;
13693;SDS011;6919;52.344;14.518;2023-02-28T08:36:22;1.10;;;1.03;;
13693;SDS011;6919;52.344;14.518;2023-02-28T08:38:52;3.93;;;1.57;;
13693;SDS011;6919;52.344;14.518;2023-02-28T08:41:21;1.23;;;1.13;;
13693;SDS011;6919;52.344;14.518;2023-02-28T08:43:51;0.70;;;0.70;;
13693;SDS011;6919;52.344;14.518;2023-02-28T08:46:20;1.27;;;1.20;;
13693;SDS011;6919;52.344;14.518;2023-02-28T08:48:51;1.60;;;1.33;;
13693;SDS011;6919;52.344;14.518;2023-02-28T08:51:21;1.47;;;1.37;;
13693;SDS011;6919;52.344;14.518;2023-02-28T08:53:53;1.90;;;1.10;;
13693;SDS011;6919;52.344;14.518;2023-02-28T08:56:23;3.73;;;1.30;;
13693;SDS011;6919;52.344;14.518;2023-02-28T08:58:55;1.63;;;0.97;;
13693;SDS011;6919;52.344;14.518;2023-02-28T09:01:24;1.27;;;1.17;;
13693;SDS011;6919;52.344;14.518;2023-02-28T09:03:55;1.50;;;1.40;;
13693;SDS011;6919;52.344;14.518;2023-02-28T09:06:26;1.47;;;1.33;;
13693;SDS011;6919;52.344;14.518;2023-02-28T09:08:56;2.53;;;1.20;;
13693;SDS011;6919;52.344;14.518;2023-02-28T09:11:27;2.33;;;1.47;;
13693;SDS011;6919;52.344;14.518;2023-02-28T09:13:58;1.63;;;1.53;;
13693;SDS011;6919;52.344;14.518;2023-02-28T09:16:29;1.60;;;1.20;;
13693;SDS011;6919;52.344;14.518;2023-02-28T09:18:59;3.67;;;1.00;;
13693;SDS011;6919;52.344;14.518;2023-02-28T09:21:28;0.80;;;0.80;;
13693;SDS011;6919;52.344;14.518;2023-02-28T09:23:58;0.70;;;0.70;;
13693;SDS011;6919;52.344;14.518;2023-02-28T09:26:27;0.73;;;0.73;;
13693;SDS011;6919;52.344;14.518;2023-02-28T09:29:09;0.70;;;0.70;;
13693;SDS011;6919;52.344;14.518;2023-02-28T09:31:38;0.90;;;0.90;;
13693;SDS011;6919;52.344;14.518;2023-02-28T09:34:07;1.43;;;1.33;;
13693;SDS011;6919;52.344;14.518;2023-02-28T09:36:35;0.83;;;0.80;;
13693;SDS011;6919;52.344;14.518;2023-02-28T09:39:11;0.47;;;0.47;;
13693;SDS011;6919;52.344;14.518;2023-02-28T09:41:42;0.90;;;0.90;;
13693;SDS011;6919;52.344;14.518;2023-02-28T09:44:20;4.20;;;0.93;;
13693;SDS011;6919;52.344;14.518;2023-02-28T09:46:53;0.57;;;0.57;;
13693;SDS011;6919;52.344;14.518;2023-02-28T09:49:28;0.40;;;0.40;;
13693;SDS011;6919;52.344;14.518;2023-02-28T09:52:06;1.37;;;1.27;;
13693;SDS011;6919;52.344;14.518;2023-02-28T09:54:39;0.47;;;0.47;;
13693;SDS011;6919;52.344;14.518;2023-02-28T09:57:09;0.60;;;0.60;;
13693;SDS011;6919;52.344;14.518;2023-02-28T09:59:53;0.50;;;0.50;;
13693;SDS011;6919;52.344;14.518;2023-02-28T10:02:38;0.57;;;0.57;;
13693;SDS011;6919;52.344;14.518;2023-02-28T10:05:30;0.50;;;0.50;;
13693;SDS011;6919;52.344;14.518;2023-02-28T10:08:06;0.47;;;0.47;;
13693;SDS011;6919;52.344;14.518;2023-02-28T10:10:40;0.50;;;0.50;;
13693;SDS011;6919;52.344;14.518;2023-02-28T10:13:19;0.30;;;0.30;;
13693;SDS011;6919;52.344;14.518;2023-02-28T10:15:54;2.00;;;1.00;;
13693;SDS011;6919;52.344;14.518;2023-02-28T10:18:27;0.63;;;0.63;;
13693;SDS011;6919;52.344;14.518;2023-02-28T10:21:03;0.53;;;0.53;;
13693;SDS011;6919;52.344;14.518;2023-02-28T10:23:34;0.80;;;0.80;;
13693;SDS011;6919;52.344;14.518;2023-02-28T10:26:08;0.50;;;0.50;;
13693;SDS011;6919;52.344;14.518;2023-02-28T10:28:39;0.63;;;0.63;;
13693;SDS011;6919;52.344;14.518;2023-02-28T10:31:10;0.40;;;0.40;;
13693;SDS011;6919;52.344;14.518;2023-02-28T10:33:44;0.40;;;0.40;;
13693;SDS011;6919;52.344;14.518;2023-02-28T10:36:15;0.40;;;0.40;;
13693;SDS011;6919;52.344;14.518;2023-02-28T10:38:45;0.47;;;0.47;;
13693;SDS011;6919;52.344;14.518;2023-02-28T10:41:18;0.40;;;0.40;;
13693;SDS011;6919;52.344;14.518;2023-02-28T10:44:15;1.43;;;0.93;;
13693;SDS011;6919;52.344;14.518;2023-02-28T10:46:49;0.30;;;0.30;;
13693;SDS011;6919;52.344;14.518;2023-02-28T10:49:20;1.07;;;0.93;;
13693;SDS011;6919;52.344;14.518;2023-02-28T10:51:51;0.50;;;0.50;;
13693;SDS011;6919;52.344;14.518;2023-02-28T10:54:24;0.53;;;0.53;;
13693;SDS011;6919;52.344;14.518;2023-02-28T10:57:07;0.50;;;0.50;;
13693;SDS011;6919;52.344;14.518;2023-02-28T10:59:44;0.80;;;0.80;;
13693;SDS011;6919;52.344;14.518;2023-02-28T11:02:34;1.53;;;0.70;;
13693;SDS011;6919;52.344;14.518;2023-02-28T11:05:22;0.30;;;0.30;;
13693;SDS011;6919;52.344;14.518;2023-02-28T11:07:54;1.80;;;0.77;;
13693;SDS011;6919;52.344;14.518;2023-02-28T11:10:28;0.37;;;0.37;;
13693;SDS011;6919;52.344;14.518;2023-02-28T11:13:01;0.40;;;0.40;;
13693;SDS011;6919;52.344;14.518;2023-02-28T11:15:31;0.47;;;0.47;;
13693;SDS011;6919;52.344;14.518;2023-02-28T11:18:06;0.63;;;0.63;;
13693;SDS011;6919;52.344;14.518;2023-02-28T11:20:49;0.40;;;0.40;;
13693;SDS011;6919;52.344;14.518;2023-02-28T11:23:21;1.27;;;0.70;;
13693;SDS011;6919;52.344;14.518;2023-02-28T11:25:54;0.60;;;0.60;;
13693;SDS011;6919;52.344;14.518;2023-02-28T11:28:27;0.50;;;0.50;;
13693;SDS011;6919;52.344;14.518;2023-02-28T11:31:05;1.23;;;0.77;;
13693;SDS011;6919;52.344;14.518;2023-02-28T11:33:47;0.80;;;0.70;;
13693;SDS011;6919;52.344;14.518;2023-02-28T11:36:18;0.63;;;0.63;;
13693;SDS011;6919;52.344;14.518;2023-02-28T11:38:51;1.13;;;0.90;;
13693;SDS011;6919;52.344;14.518;2023-02-28T11:41:33;0.60;;;0.60;;
13693;SDS011;6919;52.344;14.518;2023-02-28T11:44:31;0.40;;;0.40;;
13693;SDS011;6919;52.344;14.518;2023-02-28T11:47:10;0.43;;;0.43;;
13693;SDS011;6919;52.344;14.518;2023-02-28T11:49:47;0.40;;;0.40;;
13693;SDS011;6919;52.344;14.518;2023-02-28T11:52:26;1.10;;;0.67;;
13693;SDS011;6919;52.344;14.518;2023-02-28T11:55:09;0.90;;;0.70;;
13693;SDS011;6919;52.344;14.518;2023-02-28T11:57:52;0.40;;;0.40;;
13693;SDS011;6919;52.344;14.518;2023-02-28T12:03:58;0.83;;;0.83;;
13693;SDS011;6919;52.344;14.518;2023-02-28T12:06:35;0.50;;;0.50;;
13693;SDS011;6919;52.344;14.518;2023-02-28T12:09:27;0.40;;;0.40;;
13693;SDS011;6919;52.344;14.518;2023-02-28T12:12:12;2.43;;;0.60;;
13693;SDS011;6919;52.344;14.518;2023-02-28T12:14:57;0.80;;;0.80;;
13693;SDS011;6919;52.344;14.518;2023-02-28T12:17:55;0.50;;;0.50;;
13693;SDS011;6919;52.344;14.518;2023-02-28T12:20:41;0.50;;;0.50;;
13693;SDS011;6919;52.344;14.518;2023-02-28T12:23:24;0.40;;;0.40;;
13693;SDS011;6919;52.344;14.518;2023-02-28T12:26:11;0.50;;;0.50;;
13693;SDS011;6919;52.344;14.518;2023-02-28T12:28:47;0.57;;;0.57;;
13693;SDS011;6919;52.344;14.518;2023-02-28T12:31:21;0.30;;;0.30;;
13693;SDS011;6919;52.344;14.518;2023-02-28T12:33:52;0.30;;;0.30;;
13693;SDS011;6919;52.344;14.518;2023-02-28T12:36:26;0.77;;;0.77;;
13693;SDS011;6919;52.344;14.518;2023-02-28T12:38:58;0.40;;;0.40;;
13693;SDS011;6919;52.344;14.518;2023-02-28T12:41:33;0.87;;;0.87;;
13693;SDS011;6919;52.344;14.518;2023-02-28T12:44:07;0.43;;;0.43;;
13693;SDS011;6919;52.344;14.518;2023-02-28T12:46:41;0.67;;;0.50;;
13693;SDS011;6919;52.344;14.518;2023-02-28T12:49:13;0.30;;;0.30;;
13693;SDS011;6919;52.344;14.518;2023-02-28T12:51:44;0.50;;;0.50;;
13693;SDS011;6919;52.344;14.518;2023-02-28T12:54:18;0.30;;;0.30;;
13693;SDS011;6919;52.344;14.518;2023-02-28T12:56:54;0.93;;;0.93;;
13693;SDS011;6919;52.344;14.518;2023-02-28T12:59:33;0.50;;;0.50;;
13693;SDS011;6919;52.344;14.518;2023-02-28T13:02:18;0.30;;;0.30;;
13693;SDS011;6919;52.344;14.518;2023-02-28T13:11:25;0.20;;;0.20;;
13693;SDS011;6919;52.344;14.518;2023-02-28T13:14:01;0.77;;;0.77;;
13693;SDS011;6919;52.344;14.518;2023-02-28T13:19:25;0.57;;;0.57;;
13693;SDS011;6919;52.344;14.518;2023-02-28T13:21:56;0.83;;;0.43;;
13693;SDS011;6919;52.344;14.518;2023-02-28T13:27:23;0.60;;;0.60;;
13693;SDS011;6919;52.344;14.518;2023-02-28T13:30:00;0.50;;;0.50;;
13693;SDS011;6919;52.344;14.518;2023-02-28T13:32:51;1.53;;;0.70;;
13693;SDS011;6919;52.344;14.518;2023-02-28T13:36:01;0.40;;;0.40;;
13693;SDS011;6919;52.344;14.518;2023-02-28T13:38:37;1.50;;;0.90;;
13693;SDS011;6919;52.344;14.518;2023-02-28T13:44:23;1.70;;;0.67;;
13693;SDS011;6919;52.344;14.518;2023-02-28T13:49:49;0.60;;;0.60;;
13693;SDS011;6919;52.344;14.518;2023-02-28T13:52:20;0.57;;;0.53;;
13693;SDS011;6919;52.344;14.518;2023-02-28T13:55:11;1.13;;;0.97;;
13693;SDS011;6919;52.344;14.518;2023-02-28T13:58:05;1.53;;;1.17;;
13693;SDS011;6919;52.344;14.518;2023-02-28T14:01:06;1.03;;;0.73;;
13693;SDS011;6919;52.344;14.518;2023-02-28T14:04:06;1.80;;;1.17;;
13693;SDS011;6919;52.344;14.518;2023-02-28T14:06:58;1.03;;;0.80;;
13693;SDS011;6919;52.344;14.518;2023-02-28T14:09:29;3.70;;;1.20;;
13693;SDS011;6919;52.344;14.518;2023-02-28T14:15:03;1.03;;;0.77;;
13693;SDS011;6919;52.344;14.518;2023-02-28T14:17:54;0.70;;;0.60;;
13693;SDS011;6919;52.344;14.518;2023-02-28T14:20:26;1.10;;;0.80;;
13693;SDS011;6919;52.344;14.518;2023-02-28T14:23:01;1.53;;;1.00;;
13693;SDS011;6919;52.344;14.518;2023-02-28T14:25:36;1.57;;;0.97;;
13693;SDS011;6919;52.344;14.518;2023-02-28T14:28:14;3.07;;;1.30;;
13693;SDS011;6919;52.344;14.518;2023-02-28T14:30:57;0.80;;;0.80;;
13693;SDS011;6919;52.344;14.518;2023-02-28T14:33:44;2.67;;;1.47;;
13693;SDS011;6919;52.344;14.518;2023-02-28T14:36:33;1.40;;;1.20;;
13693;SDS011;6919;52.344;14.518;2023-02-28T14:39:04;1.10;;;0.80;;
13693;SDS011;6919;52.344;14.518;2023-02-28T14:41:38;0.93;;;0.80;;
13693;SDS011;6919;52.344;14.518;2023-02-28T14:44:15;3.17;;;1.23;;
13693;SDS011;6919;52.344;14.518;2023-02-28T14:46:45;1.37;;;1.10;;
13693;SDS011;6919;52.344;14.518;2023-02-28T14:49:20;0.50;;;0.50;;
13693;SDS011;6919;52.344;14.518;2023-02-28T14:52:01;2.23;;;1.10;;
13693;SDS011;6919;52.344;14.518;2023-02-28T14:54:35;2.30;;;0.80;;
13693;SDS011;6919;52.344;14.518;2023-02-28T14:57:05;1.10;;;0.77;;
13693;SDS011;6919;52.344;14.518;2023-02-28T14:59:34;1.20;;;0.90;;
13693;SDS011;6919;52.344;14.518;2023-02-28T15:02:13;1.20;;;0.90;;
13693;SDS011;6919;52.344;14.518;2023-02-28T15:04:56;1.13;;;0.93;;
13693;SDS011;6919;52.344;14.518;2023-02-28T15:07:26;0.60;;;0.60;;
13693;SDS011;6919;52.344;14.518;2023-02-28T15:10:08;0.77;;;0.73;;
13693;SDS011;6919;52.344;14.518;2023-02-28T15:12:39;0.87;;;0.80;;
13693;SDS011;6919;52.344;14.518;2023-02-28T15:15:14;1.60;;;1.23;;
13693;SDS011;6919;52.344;14.518;2023-02-28T15:17:44;0.97;;;0.87;;
13693;SDS011;6919;52.344;14.518;2023-02-28T15:20:18;3.60;;;1.23;;
13693;SDS011;6919;52.344;14.518;2023-02-28T15:22:48;1.27;;;1.17;;
13693;SDS011;6919;52.344;14.518;2023-02-28T15:25:20;1.23;;;1.03;;
13693;SDS011;6919;52.344;14.518;2023-02-28T15:27:51;1.20;;;0.90;;
13693;SDS011;6919;52.344;14.518;2023-02-28T15:30:22;0.93;;;0.83;;
13693;SDS011;6919;52.344;14.518;2023-02-28T15:33:15;1.10;;;0.80;;
13693;SDS011;6919;52.344;14.518;2023-02-28T15:35:48;2.63;;;1.13;;
13693;SDS011;6919;52.344;14.518;2023-02-28T15:38:21;0.60;;;0.60;;
13693;SDS011;6919;52.344;14.518;2023-02-28T15:40:51;1.17;;;0.63;;
13693;SDS011;6919;52.344;14.518;2023-02-28T15:43:24;0.60;;;0.60;;
13693;SDS011;6919;52.344;14.518;2023-02-28T15:45:55;1.23;;;0.73;;
13693;SDS011;6919;52.344;14.518;2023-02-28T15:48:27;0.77;;;0.77;;
13693;SDS011;6919;52.344;14.518;2023-02-28T15:51:02;0.50;;;0.50;;
13693;SDS011;6919;52.344;14.518;2023-02-28T15:53:36;0.50;;;0.50;;
13693;SDS011;6919;52.344;14.518;2023-02-28T15:56:12;0.50;;;0.50;;
13693;SDS011;6919;52.344;14.518;2023-02-28T15:58:49;2.70;;;1.40;;
13693;SDS011;6919;52.344;14.518;2023-02-28T16:01:23;0.30;;;0.30;;